Bon Ami, Texas
Current Conditions -  °F | °C
As of 5:35 PM on Saturday 22 Nov 2014 (Local Time) from KJAS Reporting Station
Overcast Overcast  
Wind Chill: 66°   Ceiling: 2100
Heat Index: 66°   Visibility: 10mi
Dew Point: 61°   Wind: 9mph
Humidity: 83%   Direction: 90°E
Pressure: 29.89"   Gusts: NA
Location:  30.7133°N, 93.9985°W
Report Text: KJAS 222335Z AUTO 09008KT 10SM BKN021 BKN025 OVC040 19/16 A2989 RMK AO2 T01910162
Loading
Personal Weather Stations






























Interactive Weather Map New forecast layout! Learn more

10-Day Weather Forecast

Advertisements
Track Severe Weather on mobile